createdAt,value
2022-09-01T00:01:26.889Z,97129.39
2022-09-01T00:04:15.436Z,97130.16
2022-09-01T00:07:05.339Z,97130.13
2022-09-01T00:10:12.108Z,97126.00
2022-09-01T00:13:17.367Z,97119.14
2022-09-01T00:15:47.449Z,97118.98
2022-09-01T00:18:52.358Z,97121.13
2022-09-01T00:24:47.585Z,97110.66
2022-09-01T00:30:22.527Z,97106.10
2022-09-01T00:33:09.134Z,97107.93
2022-09-01T00:36:14.380Z,97103.38
2022-09-01T00:38:44.226Z,97104.66
2022-09-01T00:41:32.066Z,97104.27
2022-09-01T00:44:04.929Z,97100.55
2022-09-01T00:49:44.071Z,97099.31
2022-09-01T00:56:04.155Z,97101.77
2022-09-01T00:58:54.592Z,97102.22
2022-09-01T01:01:41.472Z,97100.94
2022-09-01T01:04:47.352Z,97105.94
2022-09-01T01:07:53.640Z,97099.16
2022-09-01T01:10:43.095Z,97100.85
2022-09-01T01:16:58.618Z,97109.81
2022-09-01T01:20:34.075Z,97112.17
2022-09-01T01:23:42.087Z,97105.98
2022-09-01T01:26:30.148Z,97101.30
2022-09-01T01:29:02.552Z,97105.47
2022-09-01T01:31:34.792Z,97102.50
2022-09-01T01:37:13.538Z,97090.45
2022-09-01T01:40:02.070Z,97092.16
2022-09-01T01:42:51.926Z,97090.73
2022-09-01T01:45:42.994Z,97093.34
2022-09-01T01:48:50.677Z,97093.20
2022-09-01T01:51:41.501Z,97094.52
2022-09-01T01:58:11.156Z,97097.58
2022-09-01T02:08:12.130Z,97087.25
2022-09-01T02:10:59.564Z,97085.69
2022-09-01T02:14:23.136Z,97079.90
2022-09-01T02:17:11.457Z,97081.45
2022-09-01T02:19:42.663Z,97078.92
2022-09-01T02:22:29.867Z,97080.92
2022-09-01T02:25:36.052Z,97090.05
2022-09-01T02:28:24.139Z,97084.02
2022-09-01T02:31:20.782Z,97082.67
2022-09-01T02:34:45.683Z,97082.54
2022-09-01T02:40:46.270Z,97081.93
2022-09-01T02:43:33.611Z,97080.14
2022-09-01T02:46:39.902Z,97073.32
2022-09-01T02:49:29.161Z,97071.05
2022-09-01T02:52:17.472Z,97073.59
2022-09-01T02:55:27.131Z,97069.95
2022-09-01T02:58:19.470Z,97066.94
2022-09-01T03:04:36.038Z,97049.52
2022-09-01T03:07:26.467Z,97039.84
2022-09-01T03:13:39.647Z,97031.79
2022-09-01T03:23:19.273Z,97022.54
2022-09-01T03:26:07.527Z,97015.44
2022-09-01T03:29:15.084Z,97002.52
2022-09-01T03:31:45.671Z,97001.05
2022-09-01T03:34:15.933Z,97001.89
2022-09-01T03:37:25.239Z,97005.63
2022-09-01T03:49:43.997Z,97020.05
2022-09-01T03:52:31.801Z,97024.52
2022-09-01T03:58:28.999Z,97020.36
2022-09-01T04:01:01.491Z,97017.38
2022-09-01T04:03:34.071Z,97010.23
2022-09-01T04:06:08.132Z,97009.98
2022-09-01T04:09:02.160Z,97010.92
2022-09-01T04:12:26.352Z,97012.98
2022-09-01T04:19:26.204Z,97009.11
2022-09-01T04:25:58.840Z,97015.17
2022-09-01T04:28:47.772Z,97021.38
2022-09-01T04:31:55.552Z,97025.36
2022-09-01T04:35:27.756Z,97031.45
2022-09-01T04:38:34.164Z,97032.02
2022-09-01T04:41:25.238Z,97025.66
2022-09-01T04:44:50.335Z,97023.67
2022-09-01T04:48:32.848Z,97022.35
2022-09-01T04:51:21.632Z,97028.65
2022-09-01T04:54:27.443Z,97037.39
2022-09-01T04:56:57.134Z,97038.58
2022-09-01T04:59:46.263Z,97037.55
2022-09-01T05:02:17.426Z,97038.97
2022-09-01T05:05:24.077Z,97041.30
2022-09-01T05:08:32.682Z,97042.73
2022-09-01T05:15:07.067Z,97054.83
2022-09-01T05:17:37.198Z,97061.19
2022-09-01T05:20:42.592Z,97062.77
2022-09-01T05:23:13.569Z,97057.48
2022-09-01T05:26:03.523Z,97054.23
2022-09-01T05:28:54.378Z,97048.05
2022-09-01T05:31:44.983Z,97044.36
2022-09-01T05:34:35.972Z,97043.89
2022-09-01T05:37:42.295Z,97035.95
2022-09-01T05:43:59.328Z,97031.17
2022-09-01T05:47:08.232Z,97038.41
2022-09-01T05:49:39.047Z,97039.65
2022-09-01T05:52:27.172Z,97041.61
2022-09-01T05:55:33.878Z,97042.88
2022-09-01T05:58:21.185Z,97044.14
2022-09-01T06:01:33.006Z,97049.19
2022-09-01T06:04:22.467Z,97047.17
2022-09-01T06:11:17.420Z,97044.05
2022-09-01T06:13:55.260Z,97038.07
2022-09-01T06:17:02.116Z,97033.40
2022-09-01T06:19:50.360Z,97032.27
2022-09-01T06:22:20.175Z,97034.98
2022-09-01T06:28:15.043Z,97040.48
2022-09-01T06:34:33.945Z,97043.80
2022-09-01T06:37:21.992Z,97042.63
2022-09-01T06:39:53.060Z,97037.94
2022-09-01T06:42:23.175Z,97038.86
2022-09-01T06:45:00.080Z,97029.70
2022-09-01T06:48:05.852Z,97031.21
2022-09-01T06:51:17.342Z,97029.33
2022-09-01T07:00:23.507Z,97036.95
2022-09-01T07:07:53.411Z,97055.02
2022-09-01T07:14:14.991Z,97059.27
2022-09-01T07:17:23.628Z,97061.44
2022-09-01T07:20:27.936Z,97066.38
2022-09-01T07:27:07.516Z,97064.22
2022-09-01T07:30:16.998Z,97059.98
2022-09-01T07:36:32.466Z,97044.77
2022-09-01T07:50:11.532Z,97029.66
2022-09-01T07:53:03.941Z,97037.23
2022-09-01T07:59:16.602Z,97040.23
2022-09-01T08:02:24.111Z,97036.84
2022-09-01T08:05:33.260Z,97035.14
2022-09-01T08:08:58.166Z,97032.25
2022-09-01T08:12:01.574Z,97034.85
2022-09-01T08:17:51.135Z,97031.10
2022-09-01T08:20:50.981Z,97023.15
2022-09-01T08:23:39.603Z,97022.64
2022-09-01T08:26:46.069Z,97022.45
2022-09-01T08:29:52.727Z,97010.55
2022-09-01T08:36:24.968Z,97008.37
2022-09-01T08:39:35.249Z,97010.45
2022-09-01T08:42:55.607Z,97005.02
2022-09-01T08:45:30.650Z,97000.30
2022-09-01T08:51:46.457Z,97008.64
2022-09-01T08:54:41.976Z,97007.52
2022-09-01T09:01:27.028Z,97010.31
2022-09-01T09:08:06.660Z,97010.46
2022-09-01T09:11:00.223Z,97007.24
2022-09-01T09:16:35.840Z,97004.91
2022-09-01T09:22:31.809Z,96994.34
2022-09-01T09:25:56.874Z,96997.36
2022-09-01T09:29:04.689Z,97000.50
2022-09-01T09:32:51.678Z,96999.86
2022-09-01T09:35:38.116Z,97001.64
2022-09-01T09:38:28.259Z,97010.63
2022-09-01T09:41:34.281Z,97010.96
2022-09-01T09:45:03.743Z,97010.11
2022-09-01T09:48:10.855Z,97008.44
2022-09-01T09:51:21.120Z,97003.08
2022-09-01T09:58:09.973Z,96999.72
2022-09-01T10:01:47.291Z,96997.01
2022-09-01T10:07:57.025Z,96986.30
2022-09-01T10:11:04.130Z,96976.44
2022-09-01T10:17:00.198Z,96973.91
2022-09-01T10:19:35.864Z,96976.53
2022-09-01T10:22:41.332Z,96983.16
2022-09-01T10:25:37.403Z,96989.00
2022-09-01T10:28:31.704Z,96988.98
2022-09-01T10:31:37.602Z,96991.60
2022-09-01T10:34:07.935Z,96993.50
2022-09-01T10:42:31.227Z,97003.67
2022-09-01T10:48:33.319Z,96998.63
2022-09-01T10:52:03.320Z,97000.30
2022-09-01T10:55:00.948Z,97006.77
2022-09-01T10:57:56.159Z,97019.49
2022-09-01T11:07:57.529Z,97053.86
2022-09-01T11:11:20.243Z,97066.31
2022-09-01T11:14:11.044Z,97072.95
2022-09-01T11:17:18.181Z,97089.66
2022-09-01T11:20:22.908Z,97117.75
2022-09-01T11:23:12.591Z,97138.98
2022-09-01T11:29:46.372Z,97156.48
2022-09-01T11:32:36.207Z,97152.04
2022-09-01T11:35:28.186Z,97161.27
2022-09-01T11:38:17.485Z,97157.15
2022-09-01T11:41:04.442Z,97148.61
2022-09-01T11:43:54.349Z,97136.77
2022-09-01T11:47:00.163Z,97127.33
2022-09-01T11:53:18.423Z,97121.83
2022-09-01T11:56:07.532Z,97130.91
2022-09-01T11:58:54.267Z,97132.90
2022-09-01T12:01:42.755Z,97131.52
2022-09-01T12:04:50.891Z,97111.09
2022-09-01T12:07:40.545Z,97105.20
2022-09-01T12:10:40.356Z,97088.86
2022-09-01T12:13:27.915Z,97097.64
2022-09-01T12:17:11.607Z,97088.62
2022-09-01T12:19:40.764Z,97085.37
2022-09-01T12:25:50.719Z,97091.54
2022-09-01T12:32:22.925Z,97103.67
2022-09-01T12:35:28.077Z,97114.52
2022-09-01T12:38:33.376Z,97119.07
2022-09-01T12:45:16.414Z,97124.74
2022-09-01T12:48:04.769Z,97111.24
2022-09-01T12:51:05.583Z,97104.81
2022-09-01T12:53:36.957Z,97097.69
2022-09-01T12:56:48.886Z,97100.20
2022-09-01T13:07:01.326Z,97127.33
2022-09-01T13:09:30.374Z,97133.55
2022-09-01T13:12:21.100Z,97128.66
2022-09-01T13:14:50.193Z,97132.97
2022-09-01T13:17:40.235Z,97134.38
2022-09-01T13:23:51.807Z,97152.19
2022-09-01T13:26:21.537Z,97165.59
2022-09-01T13:29:27.075Z,97169.85
2022-09-01T13:37:52.485Z,97178.05
2022-09-01T13:40:40.549Z,97169.27
2022-09-01T13:43:09.686Z,97152.52
2022-09-01T13:45:40.425Z,97136.89
2022-09-01T13:48:17.598Z,97136.06
2022-09-01T13:51:23.147Z,97144.22
2022-09-01T13:58:12.862Z,97169.91
2022-09-01T14:00:44.685Z,97188.23
2022-09-01T14:06:18.415Z,97216.33
2022-09-01T14:09:06.089Z,97241.59
2022-09-01T14:11:35.969Z,97250.50
2022-09-01T14:18:06.363Z,97227.24
2022-09-01T14:21:49.585Z,97209.92
2022-09-01T14:24:38.803Z,97194.32
2022-09-01T14:27:46.573Z,97202.30
2022-09-01T14:33:40.978Z,97197.45
2022-09-01T14:36:46.483Z,97179.70
2022-09-01T14:39:15.822Z,97177.10
2022-09-01T14:42:03.544Z,97174.73
2022-09-01T14:47:25.472Z,97167.34
2022-09-01T14:50:32.394Z,97168.09
2022-09-01T14:56:11.095Z,97158.30
2022-09-01T14:59:17.304Z,97159.36
2022-09-01T15:02:06.517Z,97162.83
2022-09-01T15:08:36.423Z,97155.70
2022-09-01T15:11:24.138Z,97157.16
2022-09-01T15:14:48.825Z,97155.64
2022-09-01T15:17:56.523Z,97151.22
2022-09-01T15:20:46.237Z,97157.51
2022-09-01T15:23:51.530Z,97157.14
2022-09-01T15:26:40.625Z,97165.02
2022-09-01T15:29:46.767Z,97169.13
2022-09-01T15:32:34.191Z,97167.35
2022-09-01T15:41:35.639Z,97161.89
2022-09-01T15:44:43.025Z,97152.56
2022-09-01T15:47:12.534Z,97153.02
2022-09-01T15:50:21.081Z,97142.10
2022-09-01T15:52:54.898Z,97138.31
2022-09-01T15:56:00.853Z,97137.50
2022-09-01T15:58:39.171Z,97141.73
2022-09-01T16:01:52.383Z,97141.65
2022-09-01T16:04:57.407Z,97157.85
2022-09-01T16:10:51.477Z,97177.21
2022-09-01T16:14:15.971Z,97185.91
2022-09-01T16:17:05.450Z,97197.05
2022-09-01T16:20:12.532Z,97205.63
2022-09-01T16:22:48.617Z,97211.79
2022-09-01T16:29:02.936Z,97211.65
2022-09-01T16:31:54.572Z,97201.46
2022-09-01T16:34:46.603Z,97196.52
2022-09-01T16:37:31.179Z,97199.87
2022-09-01T16:40:44.033Z,97207.14
2022-09-01T16:43:20.276Z,97216.78
2022-09-01T16:46:10.726Z,97222.96
2022-09-01T16:49:06.457Z,97226.23
2022-09-01T16:51:47.163Z,97230.81
2022-09-01T16:54:58.364Z,97239.73
2022-09-01T16:57:59.289Z,97240.42
2022-09-01T17:01:15.988Z,97241.05
2022-09-01T17:04:09.829Z,97248.15
2022-09-01T17:07:10.098Z,97245.73
2022-09-01T17:09:42.342Z,97239.65
2022-09-01T17:13:08.258Z,97235.12
2022-09-01T17:23:19.523Z,97236.41
2022-09-01T17:26:27.144Z,97242.13
2022-09-01T17:29:38.511Z,97243.83
2022-09-01T17:36:19.756Z,97251.19
2022-09-01T17:39:33.556Z,97251.02
2022-09-01T17:42:38.613Z,97249.00
2022-09-01T17:45:30.279Z,97254.92
2022-09-01T17:48:18.531Z,97258.05
2022-09-01T17:58:15.225Z,97258.80
2022-09-01T18:01:09.411Z,97262.95
2022-09-01T18:04:41.191Z,97262.73
2022-09-01T18:07:35.119Z,97260.66
2022-09-01T18:10:29.250Z,97257.91
2022-09-01T18:13:52.826Z,97268.08
2022-09-01T18:17:02.260Z,97269.21
2022-09-01T18:20:02.179Z,97273.52
2022-09-01T18:22:56.142Z,97279.05
2022-09-01T18:25:50.252Z,97280.16
2022-09-01T18:28:19.535Z,97285.64
2022-09-01T18:31:28.150Z,97291.50
2022-09-01T18:34:22.515Z,97296.38
2022-09-01T18:37:17.393Z,97302.50
2022-09-01T18:43:42.552Z,97305.19
2022-09-01T18:46:39.392Z,97309.80
2022-09-01T18:50:07.318Z,97314.64
2022-09-01T18:59:36.674Z,97333.43
2022-09-01T19:03:01.856Z,97336.77
2022-09-01T19:06:11.232Z,97342.83
2022-09-01T19:09:53.341Z,97341.64
2022-09-01T19:12:49.676Z,97346.40
2022-09-01T19:15:39.813Z,97349.07
2022-09-01T19:18:31.174Z,97355.89
2022-09-01T19:21:23.229Z,97356.94
2022-09-01T19:23:59.242Z,97357.93
2022-09-01T19:26:47.069Z,97354.40
2022-09-01T19:29:41.776Z,97349.55
2022-09-01T19:35:56.569Z,97362.02
2022-09-01T19:38:28.476Z,97363.08
2022-09-01T19:51:45.351Z,97366.65
2022-09-01T19:54:46.277Z,97367.19
2022-09-01T19:57:39.768Z,97366.33
2022-09-01T20:00:32.832Z,97374.95
2022-09-01T20:03:08.784Z,97382.84
2022-09-01T20:06:32.528Z,97381.23
2022-09-01T20:10:14.792Z,97376.53
2022-09-01T20:13:09.985Z,97378.23
2022-09-01T20:16:21.303Z,97378.44
2022-09-01T20:19:48.123Z,97384.04
2022-09-01T20:25:21.895Z,97381.77
2022-09-01T20:31:48.788Z,97386.23
2022-09-01T20:34:25.909Z,97388.03
2022-09-01T20:50:48.251Z,97396.27
2022-09-01T20:54:02.209Z,97400.21
2022-09-01T20:56:58.460Z,97394.14
2022-09-01T21:02:50.267Z,97406.83
2022-09-01T21:09:03.274Z,97410.25
2022-09-01T21:24:33.327Z,97407.55
2022-09-01T21:27:07.005Z,97409.14
2022-09-01T21:33:18.860Z,97408.90
2022-09-01T21:40:07.864Z,97400.62
2022-09-01T21:43:31.710Z,97401.55
2022-09-01T21:46:58.147Z,97389.60
2022-09-01T21:50:21.422Z,97396.23
2022-09-01T21:52:51.291Z,97406.06
2022-09-01T21:56:00.491Z,97406.48
2022-09-01T21:58:29.614Z,97405.40
2022-09-01T22:01:01.041Z,97402.78
2022-09-01T22:03:48.000Z,97400.28
2022-09-01T22:13:59.474Z,97400.30
2022-09-01T22:19:52.686Z,97401.68
2022-09-01T22:23:16.344Z,97406.63
2022-09-01T22:26:23.945Z,97412.32
2022-09-01T22:29:11.654Z,97407.90
2022-09-01T22:31:59.659Z,97403.37
2022-09-01T22:34:37.149Z,97409.96
2022-09-01T22:37:24.808Z,97407.16
2022-09-01T22:40:15.643Z,97411.86
2022-09-01T22:47:05.778Z,97412.52
2022-09-01T22:50:12.137Z,97410.84
2022-09-01T22:52:41.541Z,97409.09
2022-09-01T22:55:51.327Z,97407.54
2022-09-01T22:59:15.091Z,97408.00
2022-09-01T23:02:21.319Z,97405.35
2022-09-01T23:04:50.683Z,97405.37
2022-09-01T23:11:03.412Z,97406.73
2022-09-01T23:14:26.662Z,97403.95
2022-09-01T23:17:14.594Z,97400.30
2022-09-01T23:25:56.021Z,97405.48
2022-09-01T23:32:45.191Z,97410.90
2022-09-01T23:38:20.908Z,97420.13
2022-09-01T23:41:08.985Z,97421.80
2022-09-01T23:43:57.390Z,97424.27
2022-09-01T23:46:29.931Z,97423.10
2022-09-01T23:49:35.784Z,97419.70
2022-09-01T23:52:59.580Z,97422.96
2022-09-01T23:55:51.131Z,97417.17
2022-09-01T23:58:56.740Z,97417.12
